sensor_id;sensor_type;location;lat;lon;timestamp;P1;durP1;ratioP1;P2;durP2;ratioP2
55134;SDS011;41031;44.750;11.308;2022-10-22T00:02:24;7.63;;;5.80;;
55134;SDS011;41031;44.750;11.308;2022-10-22T00:04:53;7.97;;;5.53;;
55134;SDS011;41031;44.750;11.308;2022-10-22T00:07:22;10.57;;;5.60;;
55134;SDS011;41031;44.750;11.308;2022-10-22T00:09:49;6.67;;;5.37;;
55134;SDS011;41031;44.750;11.308;2022-10-22T00:12:17;8.87;;;5.43;;
55134;SDS011;41031;44.750;11.308;2022-10-22T00:14:44;6.77;;;5.40;;
55134;SDS011;41031;44.750;11.308;2022-10-22T00:17:11;7.17;;;5.60;;
55134;SDS011;41031;44.750;11.308;2022-10-22T00:19:38;8.13;;;5.30;;
55134;SDS011;41031;44.750;11.308;2022-10-22T00:22:06;7.63;;;5.77;;
55134;SDS011;41031;44.750;11.308;2022-10-22T00:24:35;9.30;;;7.23;;
55134;SDS011;41031;44.750;11.308;2022-10-22T00:27:04;6.03;;;4.70;;
55134;SDS011;41031;44.750;11.308;2022-10-22T00:29:33;15.43;;;6.33;;
55134;SDS011;41031;44.750;11.308;2022-10-22T00:32:00;11.70;;;5.90;;
55134;SDS011;41031;44.750;11.308;2022-10-22T00:34:28;9.27;;;6.30;;
55134;SDS011;41031;44.750;11.308;2022-10-22T00:36:55;9.07;;;5.97;;
55134;SDS011;41031;44.750;11.308;2022-10-22T00:39:22;6.97;;;5.10;;
55134;SDS011;41031;44.750;11.308;2022-10-22T00:41:51;9.87;;;6.20;;
55134;SDS011;41031;44.750;11.308;2022-10-22T00:47:53;10.83;;;5.07;;
55134;SDS011;41031;44.750;11.308;2022-10-22T00:50:35;8.17;;;5.70;;
55134;SDS011;41031;44.750;11.308;2022-10-22T00:53:06;9.97;;;5.90;;
55134;SDS011;41031;44.750;11.308;2022-10-22T00:55:51;8.57;;;5.30;;
55134;SDS011;41031;44.750;11.308;2022-10-22T00:58:19;7.83;;;5.87;;
55134;SDS011;41031;44.750;11.308;2022-10-22T01:00:49;9.70;;;5.90;;
55134;SDS011;41031;44.750;11.308;2022-10-22T01:03:16;8.47;;;5.10;;
55134;SDS011;41031;44.750;11.308;2022-10-22T01:08:31;7.20;;;5.60;;
55134;SDS011;41031;44.750;11.308;2022-10-22T01:16:21;11.10;;;5.20;;
55134;SDS011;41031;44.750;11.308;2022-10-22T01:19:00;11.67;;;5.57;;
55134;SDS011;41031;44.750;11.308;2022-10-22T01:21:41;8.27;;;4.53;;
55134;SDS011;41031;44.750;11.308;2022-10-22T01:24:16;8.37;;;5.27;;
55134;SDS011;41031;44.750;11.308;2022-10-22T01:29:52;10.03;;;5.43;;
55134;SDS011;41031;44.750;11.308;2022-10-22T01:32:24;8.50;;;5.50;;
55134;SDS011;41031;44.750;11.308;2022-10-22T01:34:55;10.87;;;5.73;;
55134;SDS011;41031;44.750;11.308;2022-10-22T01:37:30;6.17;;;5.03;;
55134;SDS011;41031;44.750;11.308;2022-10-22T01:40:01;10.83;;;6.10;;
55134;SDS011;41031;44.750;11.308;2022-10-22T01:42:28;9.27;;;5.67;;
55134;SDS011;41031;44.750;11.308;2022-10-22T01:44:55;9.73;;;5.07;;
55134;SDS011;41031;44.750;11.308;2022-10-22T01:53:05;12.57;;;5.80;;
55134;SDS011;41031;44.750;11.308;2022-10-22T02:03:55;9.50;;;4.93;;
55134;SDS011;41031;44.750;11.308;2022-10-22T02:06:29;8.03;;;5.13;;
55134;SDS011;41031;44.750;11.308;2022-10-22T02:08:58;12.87;;;5.40;;
55134;SDS011;41031;44.750;11.308;2022-10-22T02:11:27;8.73;;;5.43;;
55134;SDS011;41031;44.750;11.308;2022-10-22T02:13:56;9.30;;;4.90;;
55134;SDS011;41031;44.750;11.308;2022-10-22T02:16:37;8.43;;;4.43;;
55134;SDS011;41031;44.750;11.308;2022-10-22T02:21:41;13.03;;;5.20;;
55134;SDS011;41031;44.750;11.308;2022-10-22T02:24:08;8.73;;;4.83;;
55134;SDS011;41031;44.750;11.308;2022-10-22T02:26:43;6.70;;;4.47;;
55134;SDS011;41031;44.750;11.308;2022-10-22T02:29:30;8.40;;;4.87;;
55134;SDS011;41031;44.750;11.308;2022-10-22T02:32:00;14.60;;;5.30;;
55134;SDS011;41031;44.750;11.308;2022-10-22T02:34:31;8.60;;;4.83;;
55134;SDS011;41031;44.750;11.308;2022-10-22T02:36:58;10.00;;;4.67;;
55134;SDS011;41031;44.750;11.308;2022-10-22T02:39:27;5.57;;;4.40;;
55134;SDS011;41031;44.750;11.308;2022-10-22T02:41:56;15.37;;;5.50;;
55134;SDS011;41031;44.750;11.308;2022-10-22T02:44:23;11.87;;;4.67;;
55134;SDS011;41031;44.750;11.308;2022-10-22T02:46:50;8.67;;;4.57;;
55134;SDS011;41031;44.750;11.308;2022-10-22T02:49:17;12.17;;;4.80;;
55134;SDS011;41031;44.750;11.308;2022-10-22T02:51:44;8.03;;;4.33;;
55134;SDS011;41031;44.750;11.308;2022-10-22T02:54:11;9.83;;;5.00;;
55134;SDS011;41031;44.750;11.308;2022-10-22T02:56:38;9.03;;;4.80;;
55134;SDS011;41031;44.750;11.308;2022-10-22T02:59:05;9.13;;;5.10;;
55134;SDS011;41031;44.750;11.308;2022-10-22T03:01:32;13.63;;;5.20;;
55134;SDS011;41031;44.750;11.308;2022-10-22T03:03:59;11.00;;;4.67;;
55134;SDS011;41031;44.750;11.308;2022-10-22T03:06:26;11.83;;;5.13;;
55134;SDS011;41031;44.750;11.308;2022-10-22T03:08:54;10.60;;;5.33;;
55134;SDS011;41031;44.750;11.308;2022-10-22T03:11:21;6.83;;;4.00;;
55134;SDS011;41031;44.750;11.308;2022-10-22T03:13:48;9.33;;;4.67;;
55134;SDS011;41031;44.750;11.308;2022-10-22T03:16:15;14.50;;;6.40;;
55134;SDS011;41031;44.750;11.308;2022-10-22T03:18:42;13.23;;;4.40;;
55134;SDS011;41031;44.750;11.308;2022-10-22T03:21:15;10.37;;;4.37;;
55134;SDS011;41031;44.750;11.308;2022-10-22T03:23:51;10.43;;;4.23;;
55134;SDS011;41031;44.750;11.308;2022-10-22T03:26:20;10.27;;;4.70;;
55134;SDS011;41031;44.750;11.308;2022-10-22T03:28:47;10.50;;;3.87;;
55134;SDS011;41031;44.750;11.308;2022-10-22T03:31:14;7.60;;;4.03;;
55134;SDS011;41031;44.750;11.308;2022-10-22T03:33:41;8.23;;;4.27;;
55134;SDS011;41031;44.750;11.308;2022-10-22T03:36:08;11.30;;;4.23;;
55134;SDS011;41031;44.750;11.308;2022-10-22T03:38:36;10.43;;;4.30;;
55134;SDS011;41031;44.750;11.308;2022-10-22T03:41:05;4.27;;;3.50;;
55134;SDS011;41031;44.750;11.308;2022-10-22T03:43:33;9.27;;;4.80;;
55134;SDS011;41031;44.750;11.308;2022-10-22T03:46:01;8.43;;;3.63;;
55134;SDS011;41031;44.750;11.308;2022-10-22T03:48:28;10.07;;;4.23;;
55134;SDS011;41031;44.750;11.308;2022-10-22T03:50:55;8.33;;;4.40;;
55134;SDS011;41031;44.750;11.308;2022-10-22T03:53:22;9.37;;;4.10;;
55134;SDS011;41031;44.750;11.308;2022-10-22T03:55:49;7.03;;;3.70;;
55134;SDS011;41031;44.750;11.308;2022-10-22T03:58:16;7.00;;;3.93;;
55134;SDS011;41031;44.750;11.308;2022-10-22T04:00:43;8.67;;;3.93;;
55134;SDS011;41031;44.750;11.308;2022-10-22T04:03:10;8.13;;;4.37;;
55134;SDS011;41031;44.750;11.308;2022-10-22T04:05:37;8.50;;;5.10;;
55134;SDS011;41031;44.750;11.308;2022-10-22T04:08:04;10.30;;;4.23;;
55134;SDS011;41031;44.750;11.308;2022-10-22T04:10:31;5.93;;;3.80;;
55134;SDS011;41031;44.750;11.308;2022-10-22T04:12:58;6.03;;;4.00;;
55134;SDS011;41031;44.750;11.308;2022-10-22T04:15:25;5.10;;;3.70;;
55134;SDS011;41031;44.750;11.308;2022-10-22T04:17:54;9.70;;;4.17;;
55134;SDS011;41031;44.750;11.308;2022-10-22T04:20:21;7.77;;;3.83;;
55134;SDS011;41031;44.750;11.308;2022-10-22T04:22:48;9.53;;;3.57;;
55134;SDS011;41031;44.750;11.308;2022-10-22T04:25:15;7.30;;;3.97;;
55134;SDS011;41031;44.750;11.308;2022-10-22T04:27:42;7.53;;;3.40;;
55134;SDS011;41031;44.750;11.308;2022-10-22T04:30:09;15.17;;;4.17;;
55134;SDS011;41031;44.750;11.308;2022-10-22T04:32:37;9.10;;;3.83;;
55134;SDS011;41031;44.750;11.308;2022-10-22T04:35:04;9.77;;;4.47;;
55134;SDS011;41031;44.750;11.308;2022-10-22T04:37:31;5.07;;;2.80;;
55134;SDS011;41031;44.750;11.308;2022-10-22T04:39:58;5.70;;;3.20;;
55134;SDS011;41031;44.750;11.308;2022-10-22T04:42:25;6.57;;;3.20;;
55134;SDS011;41031;44.750;11.308;2022-10-22T04:44:52;8.40;;;3.83;;
55134;SDS011;41031;44.750;11.308;2022-10-22T04:47:19;6.30;;;3.33;;
55134;SDS011;41031;44.750;11.308;2022-10-22T04:49:46;5.10;;;3.60;;
55134;SDS011;41031;44.750;11.308;2022-10-22T04:52:13;6.37;;;3.93;;
55134;SDS011;41031;44.750;11.308;2022-10-22T04:54:40;6.47;;;3.37;;
55134;SDS011;41031;44.750;11.308;2022-10-22T04:57:07;17.30;;;4.33;;
55134;SDS011;41031;44.750;11.308;2022-10-22T04:59:34;4.97;;;3.17;;
55134;SDS011;41031;44.750;11.308;2022-10-22T05:02:01;9.83;;;3.57;;
55134;SDS011;41031;44.750;11.308;2022-10-22T05:04:28;10.40;;;3.63;;
55134;SDS011;41031;44.750;11.308;2022-10-22T05:06:56;7.47;;;3.47;;
55134;SDS011;41031;44.750;11.308;2022-10-22T05:09:23;8.37;;;3.73;;
55134;SDS011;41031;44.750;11.308;2022-10-22T05:11:50;12.07;;;3.67;;
55134;SDS011;41031;44.750;11.308;2022-10-22T05:14:19;5.77;;;3.43;;
55134;SDS011;41031;44.750;11.308;2022-10-22T05:16:50;6.13;;;3.30;;
55134;SDS011;41031;44.750;11.308;2022-10-22T05:19:22;8.37;;;3.60;;
55134;SDS011;41031;44.750;11.308;2022-10-22T05:21:52;11.07;;;4.57;;
55134;SDS011;41031;44.750;11.308;2022-10-22T05:24:20;13.60;;;3.53;;
55134;SDS011;41031;44.750;11.308;2022-10-22T05:26:48;7.27;;;3.20;;
55134;SDS011;41031;44.750;11.308;2022-10-22T05:29:16;6.10;;;2.90;;
55134;SDS011;41031;44.750;11.308;2022-10-22T05:31:44;11.10;;;3.83;;
55134;SDS011;41031;44.750;11.308;2022-10-22T05:34:11;10.07;;;2.90;;
55134;SDS011;41031;44.750;11.308;2022-10-22T05:36:39;11.77;;;3.70;;
55134;SDS011;41031;44.750;11.308;2022-10-22T05:39:06;6.60;;;3.23;;
55134;SDS011;41031;44.750;11.308;2022-10-22T05:41:33;10.63;;;3.30;;
55134;SDS011;41031;44.750;11.308;2022-10-22T05:44:01;7.77;;;3.20;;
55134;SDS011;41031;44.750;11.308;2022-10-22T05:46:32;7.23;;;2.80;;
55134;SDS011;41031;44.750;11.308;2022-10-22T05:49:01;7.73;;;3.40;;
55134;SDS011;41031;44.750;11.308;2022-10-22T05:51:31;11.77;;;3.87;;
55134;SDS011;41031;44.750;11.308;2022-10-22T05:54:00;9.90;;;3.90;;
55134;SDS011;41031;44.750;11.308;2022-10-22T05:56:29;16.87;;;3.83;;
55134;SDS011;41031;44.750;11.308;2022-10-22T05:58:57;11.30;;;4.00;;
55134;SDS011;41031;44.750;11.308;2022-10-22T06:01:27;8.63;;;3.40;;
55134;SDS011;41031;44.750;11.308;2022-10-22T06:03:56;9.80;;;3.43;;
55134;SDS011;41031;44.750;11.308;2022-10-22T06:06:26;10.57;;;3.40;;
55134;SDS011;41031;44.750;11.308;2022-10-22T06:08:54;8.80;;;3.10;;
55134;SDS011;41031;44.750;11.308;2022-10-22T06:11:25;10.50;;;3.67;;
55134;SDS011;41031;44.750;11.308;2022-10-22T06:13:56;9.47;;;3.70;;
55134;SDS011;41031;44.750;11.308;2022-10-22T06:16:23;9.03;;;3.57;;
55134;SDS011;41031;44.750;11.308;2022-10-22T06:18:50;8.07;;;3.27;;
55134;SDS011;41031;44.750;11.308;2022-10-22T06:21:17;9.60;;;3.30;;
55134;SDS011;41031;44.750;11.308;2022-10-22T06:23:44;6.37;;;3.23;;
55134;SDS011;41031;44.750;11.308;2022-10-22T06:26:11;11.90;;;4.23;;
55134;SDS011;41031;44.750;11.308;2022-10-22T06:28:38;8.03;;;3.07;;
55134;SDS011;41031;44.750;11.308;2022-10-22T06:31:05;5.43;;;3.20;;
55134;SDS011;41031;44.750;11.308;2022-10-22T06:33:32;11.30;;;3.33;;
55134;SDS011;41031;44.750;11.308;2022-10-22T06:36:06;10.30;;;3.77;;
55134;SDS011;41031;44.750;11.308;2022-10-22T06:38:34;10.80;;;3.30;;
55134;SDS011;41031;44.750;11.308;2022-10-22T06:41:04;6.10;;;2.80;;
55134;SDS011;41031;44.750;11.308;2022-10-22T06:43:33;10.87;;;3.63;;
55134;SDS011;41031;44.750;11.308;2022-10-22T06:46:00;12.27;;;3.60;;
55134;SDS011;41031;44.750;11.308;2022-10-22T06:48:29;12.90;;;4.27;;
55134;SDS011;41031;44.750;11.308;2022-10-22T06:50:59;8.47;;;3.30;;
55134;SDS011;41031;44.750;11.308;2022-10-22T06:53:28;9.83;;;3.70;;
55134;SDS011;41031;44.750;11.308;2022-10-22T06:55:55;7.43;;;3.80;;
55134;SDS011;41031;44.750;11.308;2022-10-22T06:58:23;9.33;;;4.30;;
55134;SDS011;41031;44.750;11.308;2022-10-22T07:00:58;8.80;;;3.43;;
55134;SDS011;41031;44.750;11.308;2022-10-22T07:03:33;10.13;;;3.80;;
55134;SDS011;41031;44.750;11.308;2022-10-22T07:06:01;11.03;;;3.70;;
55134;SDS011;41031;44.750;11.308;2022-10-22T07:08:29;12.33;;;4.00;;
55134;SDS011;41031;44.750;11.308;2022-10-22T07:10:56;9.37;;;3.73;;
55134;SDS011;41031;44.750;11.308;2022-10-22T07:13:30;5.97;;;3.00;;
55134;SDS011;41031;44.750;11.308;2022-10-22T07:15:57;11.60;;;3.60;;
55134;SDS011;41031;44.750;11.308;2022-10-22T07:18:24;12.87;;;4.23;;
55134;SDS011;41031;44.750;11.308;2022-10-22T07:20:51;6.77;;;3.10;;
55134;SDS011;41031;44.750;11.308;2022-10-22T07:23:18;6.47;;;3.30;;
55134;SDS011;41031;44.750;11.308;2022-10-22T07:25:45;16.17;;;4.10;;
55134;SDS011;41031;44.750;11.308;2022-10-22T07:28:13;9.27;;;3.37;;
55134;SDS011;41031;44.750;11.308;2022-10-22T07:30:40;5.50;;;3.20;;
55134;SDS011;41031;44.750;11.308;2022-10-22T07:33:07;8.77;;;3.57;;
55134;SDS011;41031;44.750;11.308;2022-10-22T07:35:35;10.00;;;3.30;;
55134;SDS011;41031;44.750;11.308;2022-10-22T07:38:03;12.63;;;3.73;;
55134;SDS011;41031;44.750;11.308;2022-10-22T07:40:31;10.90;;;3.57;;
55134;SDS011;41031;44.750;11.308;2022-10-22T07:42:59;9.13;;;4.03;;
55134;SDS011;41031;44.750;11.308;2022-10-22T07:45:27;9.57;;;3.70;;
55134;SDS011;41031;44.750;11.308;2022-10-22T07:47:54;9.33;;;3.93;;
55134;SDS011;41031;44.750;11.308;2022-10-22T07:50:21;4.97;;;3.37;;
55134;SDS011;41031;44.750;11.308;2022-10-22T07:52:48;9.13;;;2.93;;
55134;SDS011;41031;44.750;11.308;2022-10-22T07:55:15;6.53;;;3.27;;
55134;SDS011;41031;44.750;11.308;2022-10-22T07:57:42;6.00;;;2.80;;
55134;SDS011;41031;44.750;11.308;2022-10-22T08:00:09;8.13;;;3.10;;
55134;SDS011;41031;44.750;11.308;2022-10-22T08:02:37;9.20;;;3.27;;
55134;SDS011;41031;44.750;11.308;2022-10-22T08:05:04;7.07;;;3.30;;
55134;SDS011;41031;44.750;11.308;2022-10-22T08:07:32;5.63;;;2.90;;
55134;SDS011;41031;44.750;11.308;2022-10-22T08:09:59;6.63;;;3.13;;
55134;SDS011;41031;44.750;11.308;2022-10-22T08:12:26;8.50;;;2.70;;
55134;SDS011;41031;44.750;11.308;2022-10-22T08:14:53;10.17;;;3.30;;
55134;SDS011;41031;44.750;11.308;2022-10-22T08:17:20;6.93;;;2.63;;
55134;SDS011;41031;44.750;11.308;2022-10-22T08:19:47;5.53;;;2.53;;
55134;SDS011;41031;44.750;11.308;2022-10-22T08:22:14;8.00;;;2.97;;
55134;SDS011;41031;44.750;11.308;2022-10-22T08:24:41;7.70;;;3.17;;
55134;SDS011;41031;44.750;11.308;2022-10-22T08:27:09;6.37;;;2.90;;
55134;SDS011;41031;44.750;11.308;2022-10-22T08:29:36;11.13;;;2.53;;
55134;SDS011;41031;44.750;11.308;2022-10-22T08:32:03;8.20;;;3.00;;
55134;SDS011;41031;44.750;11.308;2022-10-22T08:34:30;5.10;;;2.70;;
55134;SDS011;41031;44.750;11.308;2022-10-22T08:36:57;4.87;;;3.40;;
55134;SDS011;41031;44.750;11.308;2022-10-22T08:39:24;6.50;;;3.50;;
55134;SDS011;41031;44.750;11.308;2022-10-22T08:50:13;6.93;;;2.60;;
55134;SDS011;41031;44.750;11.308;2022-10-22T08:52:45;2.93;;;2.23;;
55134;SDS011;41031;44.750;11.308;2022-10-22T08:55:17;5.60;;;2.60;;
55134;SDS011;41031;44.750;11.308;2022-10-22T08:57:49;3.63;;;2.57;;
55134;SDS011;41031;44.750;11.308;2022-10-22T09:08:18;6.37;;;3.43;;
55134;SDS011;41031;44.750;11.308;2022-10-22T09:10:55;5.93;;;3.60;;
55134;SDS011;41031;44.750;11.308;2022-10-22T09:13:28;7.37;;;3.20;;
55134;SDS011;41031;44.750;11.308;2022-10-22T09:15:59;12.80;;;4.80;;
55134;SDS011;41031;44.750;11.308;2022-10-22T09:21:33;10.67;;;4.27;;
55134;SDS011;41031;44.750;11.308;2022-10-22T09:24:29;15.27;;;4.27;;
55134;SDS011;41031;44.750;11.308;2022-10-22T09:27:18;8.90;;;4.33;;
55134;SDS011;41031;44.750;11.308;2022-10-22T09:29:46;7.10;;;4.30;;
55134;SDS011;41031;44.750;11.308;2022-10-22T09:32:14;10.47;;;4.93;;
55134;SDS011;41031;44.750;11.308;2022-10-22T09:34:42;11.27;;;5.13;;
55134;SDS011;41031;44.750;11.308;2022-10-22T09:37:15;11.47;;;4.43;;
55134;SDS011;41031;44.750;11.308;2022-10-22T09:39:45;9.10;;;4.70;;
55134;SDS011;41031;44.750;11.308;2022-10-22T09:42:17;6.93;;;3.53;;
55134;SDS011;41031;44.750;11.308;2022-10-22T09:44:56;6.90;;;3.97;;
55134;SDS011;41031;44.750;11.308;2022-10-22T09:50:36;11.70;;;4.03;;
55134;SDS011;41031;44.750;11.308;2022-10-22T09:53:24;10.57;;;3.87;;
55134;SDS011;41031;44.750;11.308;2022-10-22T09:55:55;7.80;;;3.70;;
55134;SDS011;41031;44.750;11.308;2022-10-22T09:58:24;8.60;;;4.20;;
55134;SDS011;41031;44.750;11.308;2022-10-22T10:00:53;8.97;;;3.67;;
55134;SDS011;41031;44.750;11.308;2022-10-22T10:03:25;7.53;;;3.50;;
55134;SDS011;41031;44.750;11.308;2022-10-22T10:05:56;7.07;;;4.03;;
55134;SDS011;41031;44.750;11.308;2022-10-22T10:08:30;9.77;;;4.87;;
55134;SDS011;41031;44.750;11.308;2022-10-22T10:11:10;11.50;;;4.73;;
55134;SDS011;41031;44.750;11.308;2022-10-22T10:16:42;9.40;;;4.27;;
55134;SDS011;41031;44.750;11.308;2022-10-22T10:24:28;9.63;;;4.67;;
55134;SDS011;41031;44.750;11.308;2022-10-22T10:30:04;12.27;;;5.07;;
55134;SDS011;41031;44.750;11.308;2022-10-22T10:46:48;14.70;;;3.60;;
55134;SDS011;41031;44.750;11.308;2022-10-22T10:49:35;8.67;;;4.37;;
55134;SDS011;41031;44.750;11.308;2022-10-22T10:52:24;12.30;;;3.90;;
55134;SDS011;41031;44.750;11.308;2022-10-22T11:00:46;9.13;;;4.10;;
55134;SDS011;41031;44.750;11.308;2022-10-22T11:03:32;7.63;;;3.63;;
55134;SDS011;41031;44.750;11.308;2022-10-22T11:06:06;7.90;;;4.20;;
55134;SDS011;41031;44.750;11.308;2022-10-22T11:08:56;7.57;;;3.80;;
55134;SDS011;41031;44.750;11.308;2022-10-22T11:11:38;9.17;;;3.73;;
55134;SDS011;41031;44.750;11.308;2022-10-22T11:14:19;11.03;;;3.73;;
55134;SDS011;41031;44.750;11.308;2022-10-22T11:17:05;7.10;;;4.13;;
55134;SDS011;41031;44.750;11.308;2022-10-22T11:22:34;9.87;;;4.13;;
55134;SDS011;41031;44.750;11.308;2022-10-22T11:25:29;6.70;;;3.13;;
55134;SDS011;41031;44.750;11.308;2022-10-22T11:28:19;7.47;;;3.00;;
55134;SDS011;41031;44.750;11.308;2022-10-22T11:31:14;8.33;;;3.53;;
55134;SDS011;41031;44.750;11.308;2022-10-22T11:33:53;9.60;;;3.03;;
55134;SDS011;41031;44.750;11.308;2022-10-22T11:36:46;10.90;;;4.00;;
55134;SDS011;41031;44.750;11.308;2022-10-22T11:42:04;5.83;;;2.83;;
55134;SDS011;41031;44.750;11.308;2022-10-22T11:44:44;9.33;;;3.50;;
55134;SDS011;41031;44.750;11.308;2022-10-22T11:47:17;12.03;;;3.57;;
55134;SDS011;41031;44.750;11.308;2022-10-22T11:49:57;6.20;;;2.77;;
55134;SDS011;41031;44.750;11.308;2022-10-22T11:52:25;5.17;;;2.50;;
55134;SDS011;41031;44.750;11.308;2022-10-22T11:55:28;8.87;;;3.20;;
55134;SDS011;41031;44.750;11.308;2022-10-22T11:57:56;5.33;;;2.70;;
55134;SDS011;41031;44.750;11.308;2022-10-22T12:00:34;9.50;;;3.27;;
55134;SDS011;41031;44.750;11.308;2022-10-22T12:08:44;11.47;;;3.27;;
55134;SDS011;41031;44.750;11.308;2022-10-22T12:19:29;10.70;;;3.57;;
55134;SDS011;41031;44.750;11.308;2022-10-22T12:22:14;8.60;;;3.30;;
55134;SDS011;41031;44.750;11.308;2022-10-22T12:24:46;11.33;;;4.07;;
55134;SDS011;41031;44.750;11.308;2022-10-22T12:27:21;11.43;;;4.17;;
55134;SDS011;41031;44.750;11.308;2022-10-22T12:29:57;8.37;;;4.07;;
55134;SDS011;41031;44.750;11.308;2022-10-22T12:32:32;20.37;;;8.77;;
55134;SDS011;41031;44.750;11.308;2022-10-22T12:35:05;7.57;;;4.07;;
55134;SDS011;41031;44.750;11.308;2022-10-22T12:37:42;15.63;;;6.10;;
55134;SDS011;41031;44.750;11.308;2022-10-22T12:40:19;12.80;;;4.63;;
55134;SDS011;41031;44.750;11.308;2022-10-22T12:45:20;13.27;;;4.97;;
55134;SDS011;41031;44.750;11.308;2022-10-22T12:47:55;24.63;;;9.17;;
55134;SDS011;41031;44.750;11.308;2022-10-22T12:50:31;9.50;;;4.60;;
55134;SDS011;41031;44.750;11.308;2022-10-22T12:53:05;9.00;;;4.57;;
55134;SDS011;41031;44.750;11.308;2022-10-22T12:55:51;11.90;;;7.53;;
55134;SDS011;41031;44.750;11.308;2022-10-22T12:58:21;14.17;;;7.10;;
55134;SDS011;41031;44.750;11.308;2022-10-22T13:00:53;16.87;;;7.13;;
55134;SDS011;41031;44.750;11.308;2022-10-22T13:03:30;17.33;;;7.23;;
55134;SDS011;41031;44.750;11.308;2022-10-22T13:06:21;13.43;;;5.97;;
55134;SDS011;41031;44.750;11.308;2022-10-22T13:09:06;17.90;;;6.90;;
55134;SDS011;41031;44.750;11.308;2022-10-22T13:14:27;15.53;;;8.80;;
55134;SDS011;41031;44.750;11.308;2022-10-22T13:19:48;13.47;;;8.20;;
55134;SDS011;41031;44.750;11.308;2022-10-22T13:22:35;14.50;;;8.73;;
55134;SDS011;41031;44.750;11.308;2022-10-22T13:30:35;13.43;;;6.80;;
55134;SDS011;41031;44.750;11.308;2022-10-22T13:33:04;12.57;;;7.00;;
55134;SDS011;41031;44.750;11.308;2022-10-22T13:35:45;18.97;;;7.83;;
55134;SDS011;41031;44.750;11.308;2022-10-22T13:38:16;16.43;;;8.20;;
55134;SDS011;41031;44.750;11.308;2022-10-22T13:40:45;19.10;;;8.23;;
55134;SDS011;41031;44.750;11.308;2022-10-22T13:43:12;15.97;;;8.47;;
55134;SDS011;41031;44.750;11.308;2022-10-22T13:45:40;17.17;;;7.20;;
55134;SDS011;41031;44.750;11.308;2022-10-22T13:48:08;15.87;;;7.40;;
55134;SDS011;41031;44.750;11.308;2022-10-22T13:50:40;17.37;;;7.00;;
55134;SDS011;41031;44.750;11.308;2022-10-22T13:53:25;12.27;;;6.83;;
55134;SDS011;41031;44.750;11.308;2022-10-22T13:55:54;14.73;;;7.13;;
55134;SDS011;41031;44.750;11.308;2022-10-22T13:58:22;14.00;;;7.83;;
55134;SDS011;41031;44.750;11.308;2022-10-22T14:00:54;21.53;;;8.33;;
55134;SDS011;41031;44.750;11.308;2022-10-22T14:03:27;15.70;;;7.77;;
55134;SDS011;41031;44.750;11.308;2022-10-22T14:05:58;15.17;;;8.53;;
55134;SDS011;41031;44.750;11.308;2022-10-22T14:08:26;24.40;;;9.53;;
55134;SDS011;41031;44.750;11.308;2022-10-22T14:10:53;18.10;;;8.43;;
55134;SDS011;41031;44.750;11.308;2022-10-22T14:13:21;22.30;;;9.33;;
55134;SDS011;41031;44.750;11.308;2022-10-22T14:15:49;12.97;;;7.77;;
55134;SDS011;41031;44.750;11.308;2022-10-22T14:18:21;16.90;;;8.30;;
55134;SDS011;41031;44.750;11.308;2022-10-22T14:20:53;20.17;;;8.77;;
55134;SDS011;41031;44.750;11.308;2022-10-22T14:23:23;19.27;;;8.80;;
55134;SDS011;41031;44.750;11.308;2022-10-22T14:25:52;19.53;;;9.07;;
55134;SDS011;41031;44.750;11.308;2022-10-22T14:28:19;15.07;;;8.87;;
55134;SDS011;41031;44.750;11.308;2022-10-22T14:30:46;21.80;;;9.33;;
55134;SDS011;41031;44.750;11.308;2022-10-22T14:33:20;19.30;;;9.00;;
55134;SDS011;41031;44.750;11.308;2022-10-22T14:35:57;21.10;;;9.07;;
55134;SDS011;41031;44.750;11.308;2022-10-22T14:38:25;18.53;;;8.90;;
55134;SDS011;41031;44.750;11.308;2022-10-22T14:40:52;17.03;;;8.30;;
55134;SDS011;41031;44.750;11.308;2022-10-22T14:45:51;18.60;;;9.80;;
55134;SDS011;41031;44.750;11.308;2022-10-22T14:48:18;12.43;;;8.13;;
55134;SDS011;41031;44.750;11.308;2022-10-22T14:50:50;20.87;;;8.87;;
55134;SDS011;41031;44.750;11.308;2022-10-22T14:53:17;15.50;;;7.93;;
55134;SDS011;41031;44.750;11.308;2022-10-22T14:55:45;17.00;;;9.10;;
55134;SDS011;41031;44.750;11.308;2022-10-22T14:58:14;17.47;;;8.20;;
55134;SDS011;41031;44.750;11.308;2022-10-22T15:00:41;17.37;;;9.33;;
55134;SDS011;41031;44.750;11.308;2022-10-22T15:03:09;21.97;;;9.70;;
55134;SDS011;41031;44.750;11.308;2022-10-22T15:05:40;18.13;;;8.87;;
55134;SDS011;41031;44.750;11.308;2022-10-22T15:08:12;16.97;;;8.43;;
55134;SDS011;41031;44.750;11.308;2022-10-22T15:10:40;17.30;;;8.23;;
55134;SDS011;41031;44.750;11.308;2022-10-22T15:13:07;20.20;;;9.43;;
55134;SDS011;41031;44.750;11.308;2022-10-22T15:15:34;21.17;;;9.57;;
55134;SDS011;41031;44.750;11.308;2022-10-22T15:18:05;19.23;;;9.77;;
55134;SDS011;41031;44.750;11.308;2022-10-22T15:20:33;13.23;;;9.17;;
55134;SDS011;41031;44.750;11.308;2022-10-22T15:23:00;14.63;;;10.23;;
55134;SDS011;41031;44.750;11.308;2022-10-22T15:25:27;21.03;;;9.80;;
55134;SDS011;41031;44.750;11.308;2022-10-22T15:27:54;11.90;;;9.33;;
55134;SDS011;41031;44.750;11.308;2022-10-22T15:30:32;14.20;;;10.23;;
55134;SDS011;41031;44.750;11.308;2022-10-22T15:33:00;17.93;;;11.23;;
55134;SDS011;41031;44.750;11.308;2022-10-22T15:35:27;13.57;;;10.13;;
55134;SDS011;41031;44.750;11.308;2022-10-22T15:37:54;12.10;;;9.83;;
55134;SDS011;41031;44.750;11.308;2022-10-22T15:40:21;14.43;;;9.67;;
55134;SDS011;41031;44.750;11.308;2022-10-22T15:42:48;17.87;;;11.13;;
55134;SDS011;41031;44.750;11.308;2022-10-22T15:45:15;18.03;;;10.70;;
55134;SDS011;41031;44.750;11.308;2022-10-22T15:47:46;14.80;;;10.47;;
55134;SDS011;41031;44.750;11.308;2022-10-22T15:50:14;14.47;;;10.23;;
55134;SDS011;41031;44.750;11.308;2022-10-22T15:52:41;14.40;;;9.47;;
55134;SDS011;41031;44.750;11.308;2022-10-22T15:55:08;16.93;;;10.63;;
55134;SDS011;41031;44.750;11.308;2022-10-22T15:57:36;16.60;;;10.43;;
55134;SDS011;41031;44.750;11.308;2022-10-22T16:00:04;16.37;;;10.60;;
55134;SDS011;41031;44.750;11.308;2022-10-22T16:02:37;18.67;;;11.13;;
55134;SDS011;41031;44.750;11.308;2022-10-22T16:05:04;16.97;;;10.50;;
55134;SDS011;41031;44.750;11.308;2022-10-22T16:07:32;13.87;;;9.60;;
55134;SDS011;41031;44.750;11.308;2022-10-22T16:09:59;16.27;;;9.57;;
55134;SDS011;41031;44.750;11.308;2022-10-22T16:12:27;17.97;;;10.37;;
55134;SDS011;41031;44.750;11.308;2022-10-22T16:14:54;17.33;;;10.80;;
55134;SDS011;41031;44.750;11.308;2022-10-22T16:17:21;14.83;;;10.90;;
55134;SDS011;41031;44.750;11.308;2022-10-22T16:19:48;20.17;;;9.90;;
55134;SDS011;41031;44.750;11.308;2022-10-22T16:22:15;14.97;;;9.47;;
55134;SDS011;41031;44.750;11.308;2022-10-22T16:24:42;13.57;;;9.30;;
55134;SDS011;41031;44.750;11.308;2022-10-22T16:27:09;15.37;;;11.47;;
55134;SDS011;41031;44.750;11.308;2022-10-22T16:29:37;12.60;;;9.80;;
55134;SDS011;41031;44.750;11.308;2022-10-22T16:32:07;13.13;;;9.10;;
55134;SDS011;41031;44.750;11.308;2022-10-22T16:34:34;17.17;;;10.00;;
55134;SDS011;41031;44.750;11.308;2022-10-22T16:37:01;13.87;;;8.93;;
55134;SDS011;41031;44.750;11.308;2022-10-22T16:39:28;13.77;;;8.30;;
55134;SDS011;41031;44.750;11.308;2022-10-22T16:41:55;14.40;;;9.83;;
55134;SDS011;41031;44.750;11.308;2022-10-22T16:44:22;10.07;;;9.03;;
55134;SDS011;41031;44.750;11.308;2022-10-22T16:46:49;22.07;;;10.80;;
55134;SDS011;41031;44.750;11.308;2022-10-22T16:49:16;15.90;;;10.00;;